Time;durP1;ratioP1;P1;durP2;ratioP2;P2;SDS_P1;SDS_P2;PMS_P1;PMS_P2;Temp;Humidity;BMP_temperature;BMP_pressure;BME280_temperature;BME280_humidity;BME280_pressure;Samples;Min_cycle;Max_cycle;Signal;HPM_P1;HPM_P2
2023/02/27 00:01:48;;;;;;;7.37;7.07;;;-0.20;1.00;;;;;;5053448;28;20173;-64
2023/02/27 00:04:13;;;;;;;7.33;6.93;;;-0.20;1.00;;;;;;5072602;28;20266;-64
2023/02/27 00:06:39;;;;;;;6.93;6.63;;;-0.30;1.00;;;;;;5072363;28;20170;-64
2023/02/27 00:09:05;;;;;;;6.70;6.40;;;-0.30;1.00;;;;;;5052637;28;20226;-64
2023/02/27 00:11:30;;;;;;;6.53;6.23;;;-0.40;1.00;;;;;;5052467;28;20174;-64
2023/02/27 00:13:56;;;;;;;7.07;6.77;;;-0.40;1.00;;;;;;5069934;28;20202;-64
2023/02/27 00:16:21;;;;;;;6.57;6.17;;;-0.50;1.00;;;;;;5072352;28;20166;-64
2023/02/27 00:18:47;;;;;;;7.00;6.60;;;-0.50;1.00;;;;;;5053625;28;20284;-64
2023/02/27 00:21:13;;;;;;;8.33;7.63;;;-0.50;1.00;;;;;;5062292;28;20174;-64
2023/02/27 00:23:38;;;;;;;6.40;6.10;;;-0.50;1.00;;;;;;5072156;28;20170;-64
2023/02/27 00:26:04;;;;;;;6.40;6.10;;;-0.50;1.00;;;;;;5070359;28;20182;-64
2023/02/27 00:28:29;;;;;;;7.13;6.73;;;-0.50;1.00;;;;;;5071818;28;20229;-64
2023/02/27 00:30:55;;;;;;;6.73;6.43;;;-0.50;1.00;;;;;;5064439;28;20193;-64
2023/02/27 00:33:21;;;;;;;6.97;6.67;;;-0.50;1.00;;;;;;5051860;28;20676;-64
2023/02/27 00:35:57;;;;;;;7.03;6.63;;;-0.50;1.00;;;;;;5056951;28;20182;-64
2023/02/27 00:38:23;;;;;;;6.00;5.80;;;-0.60;1.00;;;;;;5071437;28;20659;-64
2023/02/27 00:40:49;;;;;;;6.83;6.50;;;-0.60;1.00;;;;;;5066169;28;20262;-64
2023/02/27 00:43:14;;;;;;;6.73;6.33;;;-0.60;1.00;;;;;;5054192;28;20261;-64
2023/02/27 00:45:40;;;;;;;6.60;6.30;;;-0.60;1.00;;;;;;5071655;28;20189;-64
2023/02/27 00:48:05;;;;;;;7.10;6.80;;;-0.60;1.00;;;;;;5070457;28;20247;-64
2023/02/27 00:50:31;;;;;;;7.33;6.93;;;-0.70;1.00;;;;;;5051349;28;20253;-64
2023/02/27 00:52:56;;;;;;;6.60;6.30;;;-0.70;1.00;;;;;;5051497;28;20294;-64
2023/02/27 00:55:22;;;;;;;6.60;6.30;;;-0.80;1.00;;;;;;5070689;28;20204;-64
2023/02/27 00:57:47;;;;;;;6.87;6.57;;;-0.90;1.00;;;;;;5071411;28;20209;-64
2023/02/27 01:00:13;;;;;;;7.10;6.80;;;-0.90;1.00;;;;;;5053984;28;20217;-64
2023/02/27 01:02:39;;;;;;;6.77;6.47;;;-1.00;1.00;;;;;;5051241;28;20174;-64
2023/02/27 01:05:05;;;;;;;7.57;7.23;;;-1.00;1.00;;;;;;5066957;28;20647;-64
2023/02/27 01:07:31;;;;;;;7.30;6.90;;;-1.10;1.00;;;;;;5071327;28;20198;-64
2023/02/27 01:09:57;;;;;;;6.97;6.67;;;-1.10;1.00;;;;;;5056803;28;20191;-64
2023/02/27 01:12:23;;;;;;;6.80;6.50;;;-1.20;1.00;;;;;;5051284;28;20202;-64
2023/02/27 01:14:49;;;;;;;7.33;7.03;;;-1.20;1.00;;;;;;5063326;28;20201;-64
2023/02/27 01:17:14;;;;;;;7.50;7.20;;;-1.20;6.10;;;;;;5071457;28;20299;-64
2023/02/27 01:19:40;;;;;;;7.27;6.97;;;-1.20;99.90;;;;;;5060329;28;20269;-64
2023/02/27 01:22:05;;;;;;;7.07;6.73;;;-1.30;99.90;;;;;;5051304;28;20177;-64
2023/02/27 01:24:31;;;;;;;8.00;7.60;;;-1.30;99.90;;;;;;5056055;28;20174;-64
2023/02/27 01:26:57;;;;;;;7.33;7.03;;;-1.30;99.90;;;;;;5058367;28;20648;-64
2023/02/27 01:29:23;;;;;;;7.67;7.30;;;-1.30;99.90;;;;;;5050932;28;20187;-64
2023/02/27 01:31:49;;;;;;;8.37;7.97;;;-1.40;99.90;;;;;;5051024;28;20174;-64
2023/02/27 01:34:15;;;;;;;9.33;8.40;;;-1.40;99.90;;;;;;5055952;28;20538;-64
2023/02/27 01:36:40;;;;;;;8.70;8.30;;;-1.40;1.00;;;;;;5071251;28;20181;-64
2023/02/27 01:39:06;;;;;;;8.20;7.80;;;-1.40;1.00;;;;;;5052367;28;20256;-64
2023/02/27 01:41:32;;;;;;;8.17;7.77;;;-1.40;1.00;;;;;;5051148;28;20167;-64
2023/02/27 01:44:06;;;;;;;8.70;8.30;;;-1.30;1.00;;;;;;5067742;28;20186;-64
2023/02/27 01:46:33;;;;;;;8.73;8.33;;;-1.30;1.00;;;;;;5070314;28;20252;-64
2023/02/27 01:49:16;;;;;;;8.47;8.07;;;-1.40;99.90;;;;;;5068012;28;20585;-64
2023/02/27 01:51:49;;;;;;;7.70;7.30;;;-1.40;99.90;;;;;;5073282;28;20162;-64
2023/02/27 01:54:19;;;;;;;8.17;7.87;;;-1.40;1.00;;;;;;5055030;28;20179;-64
2023/02/27 01:56:45;;;;;;;10.93;7.80;;;-1.40;1.00;;;;;;5055917;28;20174;-64
2023/02/27 01:59:12;;;;;;;7.80;7.40;;;-1.30;1.00;;;;;;5068818;22;20564;-66
2023/02/27 02:01:38;;;;;;;7.60;7.30;;;-1.30;1.00;;;;;;5034778;28;20691;-65
2023/02/27 02:04:13;;;;;;;7.90;7.50;;;-1.30;1.00;;;;;;5034809;28;20259;-66
2023/02/27 02:06:45;;;;;;;7.60;7.30;;;-1.40;99.90;;;;;;5034358;28;20187;-65
2023/02/27 02:09:14;;;;;;;8.00;7.50;;;-1.50;99.90;;;;;;5034692;28;20191;-66
2023/02/27 02:11:41;;;;;;;7.43;7.13;;;-1.60;1.00;;;;;;5034326;28;20188;-66
2023/02/27 02:14:09;;;;;;;7.60;7.20;;;-1.60;45.50;;;;;;5034519;28;20195;-66
2023/02/27 02:16:47;;;;;;;7.83;7.43;;;-1.60;99.90;;;;;;5034250;28;20172;-66
2023/02/27 02:19:33;;;;;;;7.40;7.10;;;-1.60;99.90;;;;;;5034059;28;20195;-66
2023/02/27 02:22:31;;;;;;;7.40;7.10;;;-1.70;99.90;;;;;;5033061;28;20626;-66
2023/02/27 02:25:15;;;;;;;8.47;8.07;;;-1.70;99.90;;;;;;5032208;28;20756;-66
2023/02/27 02:28:05;;;;;;;8.20;7.80;;;-1.60;43.00;;;;;;5034480;28;20195;-66
2023/02/27 02:30:39;;;;;;;8.93;8.03;;;-1.60;3.90;;;;;;5033849;28;20171;-66
2023/02/27 02:33:13;;;;;;;9.37;8.87;;;-1.70;1.00;;;;;;5034260;28;20209;-66
2023/02/27 02:35:56;;;;;;;8.17;7.70;;;-1.60;99.90;;;;;;5034976;28;20172;-66
2023/02/27 02:38:37;;;;;;;8.03;7.63;;;-1.70;1.00;;;;;;5034713;28;20680;-66
2023/02/27 02:41:40;;;;;;;8.03;7.63;;;-1.70;99.90;;;;;;5033550;28;20550;-66
2023/02/27 02:44:29;;;;;;;7.77;7.37;;;-1.70;1.00;;;;;;5034074;28;20186;-65
2023/02/27 02:47:07;;;;;;;7.43;7.13;;;-1.80;1.00;;;;;;5033436;28;20179;-66
2023/02/27 02:49:52;;;;;;;8.27;7.83;;;-1.80;1.00;;;;;;5033638;28;20270;-66
2023/02/27 02:52:39;;;;;;;7.87;7.57;;;-1.80;99.90;;;;;;5032406;28;20250;-66
2023/02/27 02:55:17;;;;;;;7.50;7.20;;;-1.80;99.90;;;;;;5033670;28;20167;-66
2023/02/27 02:57:59;;;;;;;7.67;7.27;;;-1.90;99.90;;;;;;5033561;28;20594;-66
2023/02/27 03:00:31;;;;;;;7.90;7.43;;;-1.90;99.90;;;;;;5032715;28;20601;-66
2023/02/27 03:03:08;;;;;;;7.40;7.10;;;-2.00;99.90;;;;;;5033590;28;20204;-66
2023/02/27 03:05:57;;;;;;;7.83;7.43;;;-2.10;1.00;;;;;;5033509;28;20175;-66
2023/02/27 03:08:28;;;;;;;7.47;7.17;;;-2.20;1.00;;;;;;5033316;28;20257;-66
2023/02/27 03:10:56;;;;;;;7.10;6.80;;;-2.20;1.00;;;;;;5033077;28;20603;-66
2023/02/27 03:13:46;;;;;;;6.90;6.60;;;-2.30;99.90;;;;;;5033558;28;20549;-66
2023/02/27 03:16:21;;;;;;;7.20;6.90;;;-2.30;6.10;;;;;;5032618;28;20187;-66
2023/02/27 03:18:52;;;;;;;7.00;6.70;;;-2.30;99.90;;;;;;5032506;28;20571;-66
2023/02/27 03:21:34;;;;;;;7.70;7.20;;;-2.40;1.00;;;;;;5032622;28;20226;-66
2023/02/27 03:24:03;;;;;;;7.23;6.83;;;-2.40;99.90;;;;;;5033025;28;20179;-65
2023/02/27 03:26:35;;;;;;;6.83;6.53;;;-2.40;99.90;;;;;;5033171;28;20183;-66
2023/02/27 03:29:07;;;;;;;7.30;7.00;;;-2.40;99.90;;;;;;5032618;28;20204;-66
2023/02/27 03:31:41;;;;;;;7.10;6.80;;;-2.40;99.90;;;;;;5032056;28;20175;-66
2023/02/27 03:34:22;;;;;;;7.93;7.33;;;-2.50;99.90;;;;;;5032937;28;20293;-66
2023/02/27 03:37:02;;;;;;;7.93;7.53;;;-2.50;99.90;;;;;;5032574;28;20177;-66
2023/02/27 03:39:45;;;;;;;7.13;6.83;;;-2.50;99.90;;;;;;5032568;28;20183;-66
2023/02/27 03:42:14;;;;;;;7.07;6.77;;;-2.50;99.90;;;;;;5032475;28;20660;-66
2023/02/27 03:44:50;;;;;;;7.00;6.60;;;-2.50;99.90;;;;;;5032389;28;20518;-66
2023/02/27 03:47:16;;;;;;;7.33;6.93;;;-2.50;99.90;;;;;;5032509;28;20175;-66
2023/02/27 03:49:42;;;;;;;6.90;6.60;;;-2.60;99.90;;;;;;5032439;28;20679;-66
2023/02/27 03:52:08;;;;;;;7.00;6.70;;;-2.60;99.90;;;;;;5032581;28;20180;-66
2023/02/27 03:54:42;;;;;;;7.40;7.10;;;-2.60;99.90;;;;;;5032575;28;20558;-66
2023/02/27 03:57:08;;;;;;;7.30;7.00;;;-2.60;99.90;;;;;;5032447;28;20643;-66
2023/02/27 03:59:36;;;;;;;7.63;7.23;;;-2.60;99.90;;;;;;5032190;28;20207;-66
2023/02/27 04:02:02;;;;;;;7.63;7.23;;;-2.60;99.90;;;;;;5032382;28;20187;-66
2023/02/27 04:04:30;;;;;;;7.73;7.33;;;-2.60;99.90;;;;;;5032367;28;20262;-66
2023/02/27 04:10:26;;;;;;;7.23;6.93;;;-2.60;99.90;;;;;;5031783;28;20206;-66
2023/02/27 04:13:27;;;;;;;7.77;7.47;;;-2.60;99.90;;;;;;5031277;28;20532;-66
2023/02/27 04:16:18;;;;;;;8.70;8.03;;;-2.60;99.90;;;;;;5032518;28;20682;-66
2023/02/27 04:18:54;;;;;;;8.63;8.17;;;-2.70;99.90;;;;;;5031917;28;20282;-66
2023/02/27 04:21:41;;;;;;;8.93;8.43;;;-2.70;99.90;;;;;;5031941;28;20163;-66
2023/02/27 04:24:40;;;;;;;8.33;7.93;;;-2.60;99.90;;;;;;5031795;28;20209;-66
2023/02/27 04:27:48;;;;;;;9.20;8.70;;;-2.60;99.90;;;;;;5032250;28;20649;-66
2023/02/27 04:30:28;;;;;;;8.10;7.60;;;-2.60;99.90;;;;;;5031530;28;20542;-65
2023/02/27 04:33:08;;;;;;;9.13;8.43;;;-2.60;99.90;;;;;;5031402;28;20199;-66
2023/02/27 04:35:36;;;;;;;8.37;7.93;;;-2.50;99.90;;;;;;5031893;28;20225;-66
2023/02/27 04:38:15;;;;;;;9.60;8.70;;;-2.50;99.90;;;;;;5031635;28;20199;-66
2023/02/27 04:40:56;;;;;;;8.03;7.63;;;-2.50;99.90;;;;;;5031457;28;20185;-65
2023/02/27 04:43:25;;;;;;;9.50;9.00;;;-2.50;99.90;;;;;;5031634;28;20232;-66
2023/02/27 04:45:54;;;;;;;8.63;8.20;;;-2.50;99.90;;;;;;5031321;28;20182;-66
2023/02/27 04:48:25;;;;;;;10.27;7.23;;;-2.60;99.90;;;;;;5031680;28;20260;-66
2023/02/27 04:51:02;;;;;;;8.17;7.77;;;-2.60;99.90;;;;;;5031020;28;20262;-66
2023/02/27 04:53:45;;;;;;;7.90;7.60;;;-2.60;99.90;;;;;;5031818;28;20199;-65
2023/02/27 04:56:16;;;;;;;8.33;7.87;;;-2.60;99.90;;;;;;5031651;28;20179;-66
2023/02/27 04:58:50;;;;;;;8.70;8.30;;;-2.70;99.90;;;;;;5031635;28;20203;-65
2023/02/27 05:01:22;;;;;;;8.43;7.93;;;-2.70;99.90;;;;;;5031137;28;20178;-66
2023/02/27 05:03:52;;;;;;;8.13;7.77;;;-2.70;99.90;;;;;;5031447;28;20542;-66
2023/02/27 05:06:22;;;;;;;7.93;7.60;;;-2.70;99.90;;;;;;5031327;28;20229;-66
2023/02/27 05:09:00;;;;;;;8.30;7.90;;;-2.70;99.90;;;;;;5031236;28;20187;-65
2023/02/27 05:11:33;;;;;;;7.80;7.50;;;-2.80;99.90;;;;;;5030924;28;20193;-65
2023/02/27 05:14:07;;;;;;;8.10;7.80;;;-2.80;99.90;;;;;;5031502;28;20203;-66
2023/02/27 05:16:40;;;;;;;8.00;7.70;;;-2.90;99.90;;;;;;5031238;28;20183;-65
2023/02/27 05:19:07;;;;;;;8.87;8.47;;;-3.00;99.90;;;;;;5030898;28;20190;-65
2023/02/27 05:21:54;;;;;;;8.33;8.03;;;-3.00;99.90;;;;;;5030981;28;20616;-65
2023/02/27 05:24:36;;;;;;;8.10;7.70;;;-3.00;99.90;;;;;;5031097;28;20175;-65
2023/02/27 05:27:01;;;;;;;7.97;7.57;;;-3.00;99.90;;;;;;5030762;28;20248;-65
2023/02/27 05:29:35;;;;;;;8.03;7.67;;;-3.10;99.90;;;;;;5031116;28;20195;-66
2023/02/27 05:32:19;;;;;;;7.97;7.57;;;-3.00;99.90;;;;;;5031196;28;20202;-66
2023/02/27 05:34:49;;;;;;;8.10;7.63;;;-3.10;99.90;;;;;;5031115;28;20606;-66
2023/02/27 05:37:27;;;;;;;7.47;7.17;;;-3.00;99.90;;;;;;5030883;28;20172;-66
2023/02/27 05:39:53;;;;;;;7.30;7.00;;;-3.00;99.90;;;;;;5030809;28;20238;-66
2023/02/27 05:42:30;;;;;;;7.97;7.60;;;-3.00;99.90;;;;;;5030998;28;20272;-65
2023/02/27 05:45:18;;;;;;;8.40;8.00;;;-3.00;99.90;;;;;;5030919;28;20179;-66
2023/02/27 05:47:48;;;;;;;7.63;7.33;;;-3.00;99.90;;;;;;5029421;28;20207;-66
2023/02/27 05:50:20;;;;;;;7.57;7.27;;;-2.90;99.90;;;;;;5030278;28;20163;-66
2023/02/27 05:52:48;;;;;;;7.70;7.40;;;-2.90;99.90;;;;;;5030564;28;20195;-66
2023/02/27 05:55:22;;;;;;;8.23;7.83;;;-2.90;99.90;;;;;;5030750;28;20270;-65
2023/02/27 05:58:02;;;;;;;8.20;7.70;;;-2.90;99.90;;;;;;5030696;28;20688;-66
2023/02/27 06:00:58;;;;;;;7.60;7.30;;;-2.90;99.90;;;;;;5030542;28;20558;-66
2023/02/27 06:03:28;;;;;;;8.03;7.67;;;-2.90;99.90;;;;;;5030019;28;20274;-66
2023/02/27 06:05:56;;;;;;;7.77;7.40;;;-2.90;99.90;;;;;;5030558;28;20179;-66
2023/02/27 06:08:22;;;;;;;8.10;7.73;;;-2.90;99.90;;;;;;5030801;28;20215;-65
2023/02/27 06:10:48;;;;;;;8.40;8.00;;;-2.90;99.90;;;;;;5030485;28;20211;-65
2023/02/27 06:13:16;;;;;;;8.17;7.70;;;-2.90;99.90;;;;;;5030778;28;20241;-66
2023/02/27 06:15:42;;;;;;;8.57;8.17;;;-2.80;99.90;;;;;;5030549;28;20191;-65
2023/02/27 06:18:09;;;;;;;8.30;7.80;;;-2.80;99.90;;;;;;5030680;28;20199;-65
2023/02/27 06:20:35;;;;;;;7.80;7.50;;;-2.80;99.90;;;;;;5031333;28;20168;-65
2023/02/27 06:23:00;;;;;;;8.20;7.80;;;-2.80;99.90;;;;;;5030181;28;20919;-65
2023/02/27 06:25:26;;;;;;;8.47;8.00;;;-2.80;99.90;;;;;;5030812;28;20168;-65
2023/02/27 06:27:52;;;;;;;7.97;7.67;;;-2.80;99.90;;;;;;5030454;28;20273;-65
2023/02/27 06:30:18;;;;;;;8.70;8.10;;;-2.70;99.90;;;;;;5030447;28;20225;-65
2023/02/27 06:32:44;;;;;;;8.53;8.13;;;-2.70;99.90;;;;;;5030614;28;20203;-65
2023/02/27 06:35:09;;;;;;;23.33;9.27;;;-2.70;99.90;;;;;;5031932;28;20176;-65
2023/02/27 06:37:35;;;;;;;9.60;9.10;;;-2.70;99.90;;;;;;5034028;28;20175;-66
2023/02/27 06:40:01;;;;;;;9.53;8.93;;;-2.60;99.90;;;;;;5033862;28;20573;-66
2023/02/27 06:42:26;;;;;;;9.97;9.37;;;-2.60;99.90;;;;;;5033822;28;20755;-65
2023/02/27 06:44:52;;;;;;;9.13;8.57;;;-2.60;99.90;;;;;;5032750;28;20186;-65
2023/02/27 06:47:18;;;;;;;9.17;8.73;;;-2.50;99.90;;;;;;5033564;28;20172;-65
2023/02/27 06:49:43;;;;;;;9.30;8.80;;;-2.40;99.90;;;;;;5033512;28;20207;-65
2023/02/27 06:52:09;;;;;;;8.53;8.10;;;-2.40;99.90;;;;;;5034057;28;20645;-64
2023/02/27 06:54:34;;;;;;;7.97;7.60;;;-2.30;99.90;;;;;;5034387;28;20255;-65
2023/02/27 06:57:00;;;;;;;8.43;8.03;;;-2.30;99.90;;;;;;5033860;28;20602;-65
2023/02/27 06:59:26;;;;;;;8.70;8.10;;;-2.10;99.90;;;;;;5033382;28;20302;-65
2023/02/27 07:01:51;;;;;;;8.27;7.87;;;-2.10;99.90;;;;;;5033805;28;20664;-66
2023/02/27 07:04:17;;;;;;;8.13;7.70;;;-2.00;99.90;;;;;;5032112;28;20205;-66
2023/02/27 07:06:43;;;;;;;8.77;8.07;;;-1.90;99.90;;;;;;5033470;28;20218;-65
2023/02/27 07:09:09;;;;;;;8.90;8.50;;;-1.90;99.90;;;;;;5032799;28;20245;-65
2023/02/27 07:11:34;;;;;;;9.20;8.63;;;-1.80;99.90;;;;;;5033270;28;20175;-66
2023/02/27 07:14:00;;;;;;;8.03;7.73;;;-1.80;99.90;;;;;;5032861;28;20272;-66
2023/02/27 07:16:26;;;;;;;9.17;8.67;;;-1.70;99.90;;;;;;5033037;28;20183;-66
2023/02/27 07:18:51;;;;;;;10.07;9.27;;;-1.70;99.90;;;;;;5032981;28;20202;-66
2023/02/27 07:21:17;;;;;;;8.20;7.80;;;-1.70;99.90;;;;;;5032646;28;20270;-65
2023/02/27 07:23:43;;;;;;;8.67;8.27;;;-1.60;99.90;;;;;;5033080;28;20198;-65
2023/02/27 07:26:08;;;;;;;8.07;7.67;;;-1.50;99.90;;;;;;5033073;28;20397;-65
2023/02/27 07:28:34;;;;;;;7.77;7.37;;;-1.40;99.90;;;;;;5033092;28;20267;-65
2023/02/27 07:31:00;;;;;;;9.27;8.70;;;-1.10;99.90;;;;;;5032484;28;20180;-65
2023/02/27 07:33:26;;;;;;;8.93;7.93;;;-0.60;99.90;;;;;;5033152;28;20296;-65
2023/02/27 07:35:51;;;;;;;8.43;7.83;;;0.00;99.90;;;;;;5032695;28;20186;-64
2023/02/27 07:38:18;;;;;;;9.07;8.57;;;0.60;99.90;;;;;;5032991;28;20709;-64
2023/02/27 07:40:44;;;;;;;9.03;8.53;;;1.00;99.90;;;;;;5032527;28;20182;-65
2023/02/27 07:43:11;;;;;;;8.17;7.67;;;1.50;99.90;;;;;;5032647;28;20221;-64
2023/02/27 07:45:36;;;;;;;7.60;7.20;;;1.90;99.90;;;;;;5032528;28;20202;-64
2023/02/27 07:48:02;;;;;;;9.50;8.73;;;2.40;99.90;;;;;;5032827;28;20203;-65
2023/02/27 07:50:27;;;;;;;10.13;9.53;;;2.60;99.90;;;;;;5032377;28;20179;-65
2023/02/27 07:52:53;;;;;;;9.03;8.23;;;2.90;99.90;;;;;;5032575;28;20258;-64
2023/02/27 07:55:18;;;;;;;6.93;6.43;;;3.30;99.90;;;;;;5032464;28;20556;-64
2023/02/27 07:57:44;;;;;;;8.60;7.73;;;3.50;99.90;;;;;;5032305;28;20195;-64
2023/02/27 08:00:11;;;;;;;7.27;6.67;;;3.90;99.90;;;;;;5033839;28;20237;-64
2023/02/27 08:02:37;;;;;;;10.93;7.40;;;4.30;99.90;;;;;;5033478;28;20171;-64
2023/02/27 08:05:03;;;;;;;10.37;6.80;;;4.60;99.90;;;;;;5033011;28;20562;-64
2023/02/27 08:07:29;;;;;;;7.17;6.67;;;5.00;99.90;;;;;;5033436;28;20180;-64
2023/02/27 08:09:55;;;;;;;7.40;6.90;;;5.10;99.90;;;;;;5031558;28;20191;-64
2023/02/27 08:12:21;;;;;;;7.40;6.90;;;5.10;99.90;;;;;;5032429;28;20194;-64
2023/02/27 08:14:47;;;;;;;6.67;6.27;;;5.30;99.90;;;;;;5033030;28;20183;-63
2023/02/27 08:17:12;;;;;;;6.57;6.03;;;5.50;99.90;;;;;;5033962;28;20186;-64
2023/02/27 08:19:38;;;;;;;6.70;6.30;;;5.70;99.90;;;;;;5035262;28;20198;-64
2023/02/27 08:22:03;;;;;;;6.73;6.33;;;5.80;99.90;;;;;;5034764;28;20175;-65
2023/02/27 08:24:29;;;;;;;7.40;6.90;;;5.80;99.90;;;;;;5034177;28;20263;-64
2023/02/27 08:26:56;;;;;;;7.10;6.50;;;6.10;99.90;;;;;;5031964;28;20186;-65
2023/02/27 08:29:21;;;;;;;6.13;5.83;;;6.20;99.90;;;;;;5030859;28;20199;-64
2023/02/27 08:31:47;;;;;;;7.00;6.43;;;6.40;99.90;;;;;;5031645;28;20241;-65
2023/02/27 08:34:13;;;;;;;7.63;5.97;;;6.70;99.90;;;;;;5031719;28;20207;-65
2023/02/27 08:36:38;;;;;;;6.10;5.43;;;6.60;99.90;;;;;;5031684;28;20178;-64
2023/02/27 08:39:06;;;;;;;5.80;5.40;;;6.90;99.90;;;;;;5031681;28;20191;-64
2023/02/27 08:41:31;;;;;;;6.30;5.90;;;7.20;99.90;;;;;;5032554;28;20179;-65
2023/02/27 08:43:57;;;;;;;6.33;5.83;;;7.30;99.90;;;;;;5031884;28;20179;-65
2023/02/27 08:46:22;;;;;;;5.70;5.40;;;7.40;99.90;;;;;;5031885;28;20262;-67
2023/02/27 08:48:48;;;;;;;6.77;6.27;;;7.40;99.90;;;;;;5031813;28;20200;-64
2023/02/27 08:51:14;;;;;;;6.10;5.70;;;7.30;99.90;;;;;;5031361;28;20270;-65
2023/02/27 08:53:39;;;;;;;6.17;5.77;;;7.30;99.90;;;;;;5031614;28;20207;-65
2023/02/27 08:56:05;;;;;;;5.90;5.27;;;7.40;99.90;;;;;;5031405;28;20180;-65
2023/02/27 08:58:31;;;;;;;5.57;5.27;;;7.60;99.90;;;;;;5031119;28;20260;-65
2023/02/27 09:00:56;;;;;;;5.93;5.63;;;7.60;99.90;;;;;;5029607;28;20560;-65
2023/02/27 09:03:27;;;;;;;5.87;5.37;;;7.60;99.90;;;;;;5031553;28;20175;-65
2023/02/27 09:05:53;;;;;;;6.20;5.80;;;7.80;99.90;;;;;;5031272;28;20622;-65
2023/02/27 09:08:19;;;;;;;5.80;5.40;;;7.70;99.90;;;;;;5031135;28;20253;-65
2023/02/27 09:10:44;;;;;;;5.23;4.93;;;8.00;99.90;;;;;;5031106;28;20171;-65
2023/02/27 09:13:10;;;;;;;5.60;5.10;;;8.30;99.90;;;;;;5030002;28;20207;-65
2023/02/27 09:15:36;;;;;;;5.17;4.87;;;8.70;99.90;;;;;;5028953;28;20175;-64
2023/02/27 09:18:05;;;;;;;5.80;5.30;;;9.00;99.90;;;;;;5030646;28;20711;-64
2023/02/27 09:20:34;;;;;;;5.37;4.93;;;9.20;99.90;;;;;;5030286;28;20171;-65
2023/02/27 09:23:00;;;;;;;5.27;4.87;;;9.40;99.90;;;;;;5030011;28;20590;-64
2023/02/27 09:25:26;;;;;;;5.37;5.00;;;9.80;99.90;;;;;;5030890;28;20271;-65
2023/02/27 09:27:52;;;;;;;5.37;4.83;;;9.90;99.10;;;;;;5031241;28;20290;-65
2023/02/27 09:30:18;;;;;;;5.43;4.90;;;10.20;98.40;;;;;;5030578;28;20598;-65
2023/02/27 09:32:44;;;;;;;4.67;4.37;;;10.50;97.90;;;;;;5031004;28;20199;-65
2023/02/27 09:35:09;;;;;;;5.03;4.70;;;10.90;94.90;;;;;;5030742;28;20637;-65
2023/02/27 09:37:35;;;;;;;4.80;4.50;;;11.10;93.90;;;;;;5031560;28;20183;-66
2023/02/27 09:40:01;;;;;;;7.00;4.80;;;11.00;93.60;;;;;;5030680;28;20187;-64
2023/02/27 09:42:45;;;;;;;5.00;4.60;;;11.20;94.80;;;;;;5031392;28;20625;-65
2023/02/27 09:45:22;;;;;;;5.07;4.67;;;11.10;92.00;;;;;;5030803;28;20230;-65
2023/02/27 09:47:52;;;;;;;4.97;4.67;;;10.80;92.60;;;;;;5030896;28;20209;-65
2023/02/27 09:50:30;;;;;;;5.53;5.00;;;10.90;93.60;;;;;;5030783;28;20201;-65
2023/02/27 09:52:56;;;;;;;9.93;4.73;;;11.20;93.10;;;;;;5031043;28;20203;-65
2023/02/27 09:55:22;;;;;;;8.37;4.57;;;11.40;93.40;;;;;;5031050;28;20236;-65
2023/02/27 09:58:29;;;;;;;4.80;4.50;;;11.40;91.50;;;;;;5030725;28;20700;-65
2023/02/27 10:00:58;;;;;;;4.90;4.50;;;10.70;91.30;;;;;;5030719;28;20190;-64
2023/02/27 10:03:30;;;;;;;4.70;4.40;;;10.70;92.30;;;;;;5030903;28;20217;-65
2023/02/27 10:06:21;;;;;;;4.93;4.43;;;10.80;92.40;;;;;;5031003;28;20195;-65
2023/02/27 10:09:24;;;;;;;4.57;4.27;;;11.20;91.40;;;;;;5030716;28;20576;-65
2023/02/27 10:12:02;;;;;;;4.63;4.30;;;11.20;89.80;;;;;;5034524;28;20510;-64
2023/02/27 10:14:36;;;;;;;5.23;4.93;;;11.40;89.20;;;;;;5015027;28;20607;-65
2023/02/27 10:17:10;;;;;;;4.40;4.10;;;11.40;88.60;;;;;;5030379;28;20186;-65
2023/02/27 10:19:37;;;;;;;4.50;4.20;;;11.20;82.30;;;;;;5016665;28;20274;-65
2023/02/27 10:22:09;;;;;;;4.43;4.23;;;10.70;82.50;;;;;;5030227;28;20196;-64
2023/02/27 10:24:43;;;;;;;5.60;4.20;;;10.20;85.60;;;;;;5034883;28;20172;-65
2023/02/27 10:27:16;;;;;;;4.33;4.03;;;9.80;85.00;;;;;;5034552;28;20174;-65
2023/02/27 10:29:42;;;;;;;4.50;4.20;;;9.60;90.30;;;;;;5033766;28;20245;-65
2023/02/27 10:32:24;;;;;;;4.33;4.13;;;9.20;85.70;;;;;;5034225;28;20183;-64
2023/02/27 10:35:08;;;;;;;4.30;4.00;;;9.30;87.80;;;;;;5034117;28;20258;-65
2023/02/27 10:37:37;;;;;;;4.40;4.20;;;9.20;88.30;;;;;;5032964;28;20503;-65
2023/02/27 10:40:05;;;;;;;4.70;4.50;;;8.90;87.20;;;;;;5034215;28;20266;-65
2023/02/27 10:42:36;;;;;;;4.80;4.50;;;8.80;86.00;;;;;;5034364;28;20167;-65
2023/02/27 10:45:03;;;;;;;4.77;4.47;;;8.90;87.00;;;;;;5033611;28;20179;-65
2023/02/27 10:47:29;;;;;;;4.83;4.53;;;8.80;85.10;;;;;;5034146;28;20179;-65
2023/02/27 10:49:58;;;;;;;4.97;4.67;;;8.80;89.70;;;;;;5033550;28;20175;-66
2023/02/27 10:52:24;;;;;;;4.93;4.63;;;8.90;89.20;;;;;;5034002;28;20638;-64
2023/02/27 10:54:50;;;;;;;4.80;4.50;;;8.80;87.20;;;;;;5033717;28;20173;-65
2023/02/27 10:57:20;;;;;;;5.20;4.83;;;8.40;83.10;;;;;;5033745;28;20176;-65
2023/02/27 10:59:57;;;;;;;4.97;4.67;;;8.50;88.20;;;;;;5033156;28;20684;-65
2023/02/27 11:02:38;;;;;;;5.63;5.23;;;8.30;85.50;;;;;;5014070;28;20219;-65
2023/02/27 11:05:16;;;;;;;5.20;4.90;;;8.60;88.50;;;;;;5015510;28;20164;-65
2023/02/27 11:07:41;;;;;;;4.70;4.47;;;8.70;89.10;;;;;;5033680;28;20182;-65
2023/02/27 11:10:11;;;;;;;4.63;4.40;;;9.00;85.50;;;;;;5033353;28;20160;-64
2023/02/27 11:12:37;;;;;;;4.30;4.10;;;9.10;85.60;;;;;;5033741;28;20197;-65
2023/02/27 11:15:21;;;;;;;4.20;4.00;;;9.30;85.60;;;;;;5013238;28;20224;-65
2023/02/27 11:17:47;;;;;;;4.37;4.00;;;9.80;86.20;;;;;;5013698;28;20192;-65
2023/02/27 11:20:34;;;;;;;4.30;4.00;;;10.30;86.10;;;;;;5020468;28;20178;-66
2023/02/27 11:23:13;;;;;;;4.00;3.80;;;10.90;82.20;;;;;;5033189;28;20194;-65
2023/02/27 11:25:39;;;;;;;3.93;3.73;;;11.20;80.50;;;;;;5033079;28;20546;-65
2023/02/27 11:28:27;;;;;;;3.93;3.73;;;11.30;78.40;;;;;;5037106;28;20202;-65
2023/02/27 11:31:04;;;;;;;4.03;3.77;;;11.60;82.00;;;;;;5040505;28;20230;-65
2023/02/27 11:33:46;;;;;;;4.87;4.10;;;11.50;74.20;;;;;;5033114;28;20252;-65
2023/02/27 11:36:12;;;;;;;3.90;3.70;;;11.10;75.30;;;;;;5033240;28;20164;-65
2023/02/27 11:38:37;;;;;;;4.20;4.00;;;10.90;76.10;;;;;;5033221;28;20214;-65
2023/02/27 11:41:05;;;;;;;4.23;4.03;;;10.60;78.00;;;;;;5032430;28;20270;-65
2023/02/27 11:43:40;;;;;;;4.37;3.97;;;10.30;77.40;;;;;;5033442;28;20233;-65
2023/02/27 11:46:10;;;;;;;4.10;3.90;;;10.30;76.00;;;;;;5032746;28;20171;-65
2023/02/27 11:48:38;;;;;;;5.07;4.70;;;10.00;74.60;;;;;;5033104;28;20214;-64
2023/02/27 11:51:09;;;;;;;4.50;4.30;;;9.30;77.50;;;;;;5032162;28;20708;-63
2023/02/27 11:53:59;;;;;;;4.50;4.30;;;8.90;78.80;;;;;;5033535;28;20242;-64
2023/02/27 11:56:38;;;;;;;4.30;4.10;;;9.00;81.70;;;;;;5032998;28;20182;-65
2023/02/27 11:59:10;;;;;;;4.73;4.43;;;9.60;83.70;;;;;;5032212;28;20294;-65
2023/02/27 12:01:44;;;;;;;4.53;4.23;;;10.20;81.00;;;;;;5032693;28;20187;-64
2023/02/27 12:04:16;;;;;;;4.00;3.80;;;10.40;75.80;;;;;;5032961;28;20232;-64
2023/02/27 12:07:10;;;;;;;5.20;4.80;;;10.40;78.70;;;;;;5032760;28;20716;-64
2023/02/27 12:10:05;;;;;;;4.40;4.20;;;10.40;73.80;;;;;;5027354;28;20680;-64
2023/02/27 12:13:00;;;;;;;4.80;4.40;;;10.20;73.50;;;;;;5028409;28;20769;-64
2023/02/27 12:15:40;;;;;;;7.10;4.80;;;10.00;78.60;;;;;;5032674;28;20212;-65
2023/02/27 12:18:30;;;;;;;4.40;4.20;;;9.60;81.30;;;;;;5032566;28;20191;-65
2023/02/27 12:20:58;;;;;;;5.00;4.70;;;9.60;80.30;;;;;;5030372;28;20179;-65
2023/02/27 12:23:27;;;;;;;4.33;4.13;;;9.80;80.80;;;;;;5032725;28;20229;-65
2023/02/27 12:26:13;;;;;;;4.40;4.20;;;10.00;78.70;;;;;;5032515;28;20589;-65
2023/02/27 12:29:01;;;;;;;15.63;6.33;;;9.60;76.50;;;;;;5031718;28;20191;-65
2023/02/27 12:31:31;;;;;;;4.30;4.10;;;9.20;77.80;;;;;;5031545;28;20656;-65
2023/02/27 12:34:13;;;;;;;4.37;4.17;;;9.20;79.10;;;;;;5031272;28;20610;-64
2023/02/27 12:36:38;;;;;;;5.40;5.10;;;9.60;78.70;;;;;;5032119;28;20178;-65
2023/02/27 12:39:04;;;;;;;3.90;3.70;;;10.20;77.40;;;;;;5031638;28;20569;-65
2023/02/27 12:41:50;;;;;;;4.30;3.90;;;10.80;77.20;;;;;;5031595;28;20184;-65
2023/02/27 12:44:33;;;;;;;4.20;4.00;;;11.00;73.10;;;;;;5031606;28;20183;-65
2023/02/27 12:47:26;;;;;;;4.10;3.90;;;10.80;75.20;;;;;;5031957;28;20175;-65
2023/02/27 12:50:15;;;;;;;4.20;4.00;;;10.80;75.70;;;;;;5031305;28;20175;-65
2023/02/27 12:52:55;;;;;;;4.13;3.83;;;10.80;75.00;;;;;;5029925;28;20218;-65
2023/02/27 12:55:31;;;;;;;4.37;4.17;;;11.00;76.60;;;;;;5031130;28;20167;-65
2023/02/27 12:58:26;;;;;;;4.63;3.93;;;10.80;73.60;;;;;;5031469;28;20202;-65
2023/02/27 13:01:25;;;;;;;4.30;4.10;;;11.00;73.90;;;;;;5031419;28;20182;-65
2023/02/27 13:03:55;;;;;;;4.53;4.33;;;10.90;73.90;;;;;;5028404;28;20210;-65
2023/02/27 13:06:52;;;;;;;4.73;4.43;;;11.10;74.60;;;;;;5029484;28;20584;-65
2023/02/27 13:09:39;;;;;;;4.43;4.13;;;11.10;72.70;;;;;;5031237;28;20226;-65
2023/02/27 13:12:26;;;;;;;4.50;4.30;;;10.70;73.00;;;;;;5031842;28;20545;-65
2023/02/27 13:15:03;;;;;;;5.33;4.87;;;10.50;75.20;;;;;;5031569;28;20715;-65
2023/02/27 13:17:39;;;;;;;4.40;4.10;;;10.50;75.90;;;;;;5031788;28;20306;-65
2023/02/27 13:20:20;;;;;;;5.30;4.40;;;10.60;75.90;;;;;;5029225;28;20185;-65